49CO weather

Air Dusters Inc Airport
Roggen, Colorado, United States

Public forecast

Using degrees Fahrenheit for public forecast. Weather courtesy of forecast.io.

METAR (pilot weather report)

Closest report is Denver International Airport, 19.5 nm (36.2 km) SW. Retrieved 2019/08/21 01:53 UTC (1 hour ago):

KDEN 210153Z 10019G30KT 10SM FEW110 BKN150 BKN220 24/11 A3011 RMK AO2 PK WND 08035/0113 LTG DSNT E AND SE SLP111 T02440111

TAF (pilot weather forecast)

Forecast is more than 12 hours old.

Closest forecast is Denver International Airport, 19.5 nm (36.2 km) SW. Retrieved 2019/08/20 00:22 UTC (1 day ago):

TAF KDEN 202320Z 2100/2206 02016G35KT P6SM SCT080 BKN150 TEMPO 2100/2101 2SM BLDU FM210100 05014KT P6SM SCT080 BKN150 TEMPO 2101/2105 VRB20G35KT -TSRA BKN080CB FM210500 36010KT P6SM SCT050 BKN100 FM210900 21007KT P6SM SCT030 BKN100 TEMPO 2111/2115 3SM BR BKN020 FM211500 05010KT P6SM BKN050 FM211800 09012G20KT P6SM BKN050 TEMPO 2122/2202 VRB20G35KT -TSRA BKN060CB FM220400 21008KT P6SM BKN050